sensor_id;sensor_type;location;lat;lon;timestamp;P1;durP1;ratioP1;P2;durP2;ratioP2
44426;SDS011;30133;47.866;-4.222;2022-08-19T00:01:55;3.28;;;2.20;;
44426;SDS011;30133;47.866;-4.222;2022-08-19T00:04:25;2.45;;;1.75;;
44426;SDS011;30133;47.866;-4.222;2022-08-19T00:06:57;2.70;;;2.15;;
44426;SDS011;30133;47.866;-4.222;2022-08-19T00:09:24;2.38;;;1.80;;
44426;SDS011;30133;47.866;-4.222;2022-08-19T00:11:52;1.77;;;1.35;;
44426;SDS011;30133;47.866;-4.222;2022-08-19T00:14:21;3.80;;;2.30;;
44426;SDS011;30133;47.866;-4.222;2022-08-19T00:16:50;2.92;;;1.73;;
44426;SDS011;30133;47.866;-4.222;2022-08-19T00:19:19;2.35;;;1.77;;
44426;SDS011;30133;47.866;-4.222;2022-08-19T00:21:47;2.92;;;1.85;;
44426;SDS011;30133;47.866;-4.222;2022-08-19T00:24:15;3.97;;;2.10;;
44426;SDS011;30133;47.866;-4.222;2022-08-19T00:26:48;2.95;;;2.08;;
44426;SDS011;30133;47.866;-4.222;2022-08-19T00:29:15;2.30;;;1.77;;
44426;SDS011;30133;47.866;-4.222;2022-08-19T00:31:44;4.78;;;2.25;;
44426;SDS011;30133;47.866;-4.222;2022-08-19T00:34:13;3.60;;;2.30;;
44426;SDS011;30133;47.866;-4.222;2022-08-19T00:36:40;3.45;;;2.08;;
44426;SDS011;30133;47.866;-4.222;2022-08-19T00:39:08;3.88;;;1.83;;
44426;SDS011;30133;47.866;-4.222;2022-08-19T00:41:35;2.67;;;2.15;;
44426;SDS011;30133;47.866;-4.222;2022-08-19T00:44:04;3.70;;;1.83;;
44426;SDS011;30133;47.866;-4.222;2022-08-19T00:46:41;2.92;;;1.90;;
44426;SDS011;30133;47.866;-4.222;2022-08-19T00:52:07;3.38;;;1.88;;
44426;SDS011;30133;47.866;-4.222;2022-08-19T00:54:45;3.00;;;1.85;;
44426;SDS011;30133;47.866;-4.222;2022-08-19T00:57:14;4.10;;;2.00;;
44426;SDS011;30133;47.866;-4.222;2022-08-19T01:02:13;2.60;;;1.90;;
44426;SDS011;30133;47.866;-4.222;2022-08-19T01:04:41;6.05;;;2.13;;
44426;SDS011;30133;47.866;-4.222;2022-08-19T01:07:07;3.00;;;2.03;;
44426;SDS011;30133;47.866;-4.222;2022-08-19T01:09:33;4.22;;;1.90;;
44426;SDS011;30133;47.866;-4.222;2022-08-19T01:11:59;2.95;;;2.15;;
44426;SDS011;30133;47.866;-4.222;2022-08-19T01:14:26;2.67;;;1.70;;
44426;SDS011;30133;47.866;-4.222;2022-08-19T01:16:52;2.35;;;1.92;;
44426;SDS011;30133;47.866;-4.222;2022-08-19T01:19:24;6.65;;;1.85;;
44426;SDS011;30133;47.866;-4.222;2022-08-19T01:24:48;2.78;;;1.90;;
44426;SDS011;30133;47.866;-4.222;2022-08-19T01:27:20;3.45;;;2.15;;
44426;SDS011;30133;47.866;-4.222;2022-08-19T01:29:46;3.15;;;2.05;;
44426;SDS011;30133;47.866;-4.222;2022-08-19T01:32:13;2.40;;;1.77;;
44426;SDS011;30133;47.866;-4.222;2022-08-19T01:34:47;3.22;;;2.63;;
44426;SDS011;30133;47.866;-4.222;2022-08-19T01:37:13;2.80;;;1.45;;
44426;SDS011;30133;47.866;-4.222;2022-08-19T01:39:40;4.07;;;2.03;;
44426;SDS011;30133;47.866;-4.222;2022-08-19T01:42:08;4.32;;;2.78;;
44426;SDS011;30133;47.866;-4.222;2022-08-19T01:44:42;2.63;;;2.00;;
44426;SDS011;30133;47.866;-4.222;2022-08-19T01:47:08;4.80;;;2.13;;
44426;SDS011;30133;47.866;-4.222;2022-08-19T01:49:35;5.53;;;2.20;;
44426;SDS011;30133;47.866;-4.222;2022-08-19T01:52:06;4.47;;;2.40;;
44426;SDS011;30133;47.866;-4.222;2022-08-19T01:54:37;3.90;;;2.10;;
44426;SDS011;30133;47.866;-4.222;2022-08-19T01:57:05;2.33;;;1.80;;
44426;SDS011;30133;47.866;-4.222;2022-08-19T01:59:40;2.63;;;2.00;;
44426;SDS011;30133;47.866;-4.222;2022-08-19T02:02:08;3.00;;;2.25;;
44426;SDS011;30133;47.866;-4.222;2022-08-19T02:04:34;3.35;;;1.80;;
44426;SDS011;30133;47.866;-4.222;2022-08-19T02:07:02;4.40;;;2.00;;
44426;SDS011;30133;47.866;-4.222;2022-08-19T02:09:33;2.78;;;2.17;;
44426;SDS011;30133;47.866;-4.222;2022-08-19T02:11:59;1.63;;;1.33;;
44426;SDS011;30133;47.866;-4.222;2022-08-19T02:14:25;3.35;;;2.13;;
44426;SDS011;30133;47.866;-4.222;2022-08-19T02:16:55;2.95;;;2.15;;
44426;SDS011;30133;47.866;-4.222;2022-08-19T02:19:25;3.55;;;1.90;;
44426;SDS011;30133;47.866;-4.222;2022-08-19T02:21:52;2.97;;;1.80;;
44426;SDS011;30133;47.866;-4.222;2022-08-19T02:24:18;2.08;;;1.50;;
44426;SDS011;30133;47.866;-4.222;2022-08-19T02:26:44;4.65;;;2.13;;
44426;SDS011;30133;47.866;-4.222;2022-08-19T02:29:12;4.80;;;1.95;;
44426;SDS011;30133;47.866;-4.222;2022-08-19T02:31:38;3.20;;;1.90;;
44426;SDS011;30133;47.866;-4.222;2022-08-19T02:34:04;8.43;;;2.63;;
44426;SDS011;30133;47.866;-4.222;2022-08-19T02:36:30;2.90;;;1.90;;
44426;SDS011;30133;47.866;-4.222;2022-08-19T02:38:57;3.72;;;1.75;;
44426;SDS011;30133;47.866;-4.222;2022-08-19T02:41:29;3.00;;;2.00;;
44426;SDS011;30133;47.866;-4.222;2022-08-19T02:43:58;2.22;;;1.52;;
44426;SDS011;30133;47.866;-4.222;2022-08-19T02:46:27;3.03;;;1.98;;
44426;SDS011;30133;47.866;-4.222;2022-08-19T02:49:02;4.82;;;2.15;;
44426;SDS011;30133;47.866;-4.222;2022-08-19T02:51:39;2.85;;;2.20;;
44426;SDS011;30133;47.866;-4.222;2022-08-19T02:54:10;3.13;;;1.75;;
44426;SDS011;30133;47.866;-4.222;2022-08-19T02:56:39;2.95;;;2.15;;
44426;SDS011;30133;47.866;-4.222;2022-08-19T02:59:08;5.40;;;2.35;;
44426;SDS011;30133;47.866;-4.222;2022-08-19T03:01:35;3.05;;;2.03;;
44426;SDS011;30133;47.866;-4.222;2022-08-19T03:04:02;3.53;;;2.35;;
44426;SDS011;30133;47.866;-4.222;2022-08-19T03:06:31;4.03;;;2.10;;
44426;SDS011;30133;47.866;-4.222;2022-08-19T03:09:03;4.13;;;1.92;;
44426;SDS011;30133;47.866;-4.222;2022-08-19T03:11:30;3.38;;;1.92;;
44426;SDS011;30133;47.866;-4.222;2022-08-19T03:13:58;3.40;;;1.95;;
44426;SDS011;30133;47.866;-4.222;2022-08-19T03:16:26;3.60;;;2.20;;
44426;SDS011;30133;47.866;-4.222;2022-08-19T03:19:02;3.05;;;1.98;;
44426;SDS011;30133;47.866;-4.222;2022-08-19T03:21:32;3.40;;;2.15;;
44426;SDS011;30133;47.866;-4.222;2022-08-19T03:24:04;2.75;;;2.00;;
44426;SDS011;30133;47.866;-4.222;2022-08-19T03:26:37;2.47;;;1.70;;
44426;SDS011;30133;47.866;-4.222;2022-08-19T03:29:10;2.83;;;1.80;;
44426;SDS011;30133;47.866;-4.222;2022-08-19T03:31:38;3.63;;;2.22;;
44426;SDS011;30133;47.866;-4.222;2022-08-19T03:34:08;2.42;;;1.67;;
44426;SDS011;30133;47.866;-4.222;2022-08-19T03:36:40;3.25;;;2.00;;
44426;SDS011;30133;47.866;-4.222;2022-08-19T03:39:09;4.03;;;2.00;;
44426;SDS011;30133;47.866;-4.222;2022-08-19T03:41:37;2.17;;;1.60;;
44426;SDS011;30133;47.866;-4.222;2022-08-19T03:44:06;3.63;;;2.10;;
44426;SDS011;30133;47.866;-4.222;2022-08-19T03:46:33;3.00;;;1.77;;
44426;SDS011;30133;47.866;-4.222;2022-08-19T03:49:02;6.28;;;2.65;;
44426;SDS011;30133;47.866;-4.222;2022-08-19T03:51:38;2.83;;;1.73;;
44426;SDS011;30133;47.866;-4.222;2022-08-19T03:54:06;2.53;;;1.85;;
44426;SDS011;30133;47.866;-4.222;2022-08-19T03:56:37;3.05;;;1.77;;
44426;SDS011;30133;47.866;-4.222;2022-08-19T03:59:06;3.60;;;2.03;;
44426;SDS011;30133;47.866;-4.222;2022-08-19T04:01:37;2.97;;;1.58;;
44426;SDS011;30133;47.866;-4.222;2022-08-19T04:04:04;1.98;;;1.58;;
44426;SDS011;30133;47.866;-4.222;2022-08-19T04:06:31;3.08;;;1.67;;
44426;SDS011;30133;47.866;-4.222;2022-08-19T04:09:02;3.78;;;2.00;;
44426;SDS011;30133;47.866;-4.222;2022-08-19T04:11:38;2.42;;;1.70;;
44426;SDS011;30133;47.866;-4.222;2022-08-19T04:14:11;2.93;;;1.73;;
44426;SDS011;30133;47.866;-4.222;2022-08-19T04:16:46;3.88;;;2.08;;
44426;SDS011;30133;47.866;-4.222;2022-08-19T04:19:13;4.90;;;2.05;;
44426;SDS011;30133;47.866;-4.222;2022-08-19T04:21:43;4.20;;;2.63;;
44426;SDS011;30133;47.866;-4.222;2022-08-19T04:24:15;2.40;;;1.85;;
44426;SDS011;30133;47.866;-4.222;2022-08-19T04:26:42;2.47;;;2.00;;
44426;SDS011;30133;47.866;-4.222;2022-08-19T04:29:13;4.50;;;2.00;;
44426;SDS011;30133;47.866;-4.222;2022-08-19T04:31:44;2.97;;;2.13;;
44426;SDS011;30133;47.866;-4.222;2022-08-19T04:34:12;6.13;;;1.98;;
44426;SDS011;30133;47.866;-4.222;2022-08-19T04:36:42;3.97;;;2.13;;
44426;SDS011;30133;47.866;-4.222;2022-08-19T04:39:16;3.88;;;1.85;;
44426;SDS011;30133;47.866;-4.222;2022-08-19T04:41:47;2.80;;;1.90;;
44426;SDS011;30133;47.866;-4.222;2022-08-19T04:44:33;2.80;;;2.10;;
44426;SDS011;30133;47.866;-4.222;2022-08-19T04:47:01;6.10;;;2.65;;
44426;SDS011;30133;47.866;-4.222;2022-08-19T04:49:31;3.53;;;2.17;;
44426;SDS011;30133;47.866;-4.222;2022-08-19T04:51:57;5.80;;;1.92;;
44426;SDS011;30133;47.866;-4.222;2022-08-19T04:54:24;2.08;;;1.73;;
44426;SDS011;30133;47.866;-4.222;2022-08-19T04:56:51;3.65;;;2.15;;
44426;SDS011;30133;47.866;-4.222;2022-08-19T04:59:19;2.60;;;1.95;;
44426;SDS011;30133;47.866;-4.222;2022-08-19T05:01:47;2.65;;;2.03;;
44426;SDS011;30133;47.866;-4.222;2022-08-19T05:04:14;3.05;;;2.20;;
44426;SDS011;30133;47.866;-4.222;2022-08-19T05:06:44;4.30;;;2.13;;
44426;SDS011;30133;47.866;-4.222;2022-08-19T05:09:13;5.05;;;1.95;;
44426;SDS011;30133;47.866;-4.222;2022-08-19T05:11:41;2.75;;;1.85;;
44426;SDS011;30133;47.866;-4.222;2022-08-19T05:14:07;2.65;;;1.80;;
44426;SDS011;30133;47.866;-4.222;2022-08-19T05:16:34;3.25;;;1.98;;
44426;SDS011;30133;47.866;-4.222;2022-08-19T05:19:00;4.47;;;1.55;;
44426;SDS011;30133;47.866;-4.222;2022-08-19T05:21:45;3.17;;;1.92;;
44426;SDS011;30133;47.866;-4.222;2022-08-19T05:24:31;2.13;;;1.63;;
44426;SDS011;30133;47.866;-4.222;2022-08-19T05:27:02;2.72;;;1.92;;
44426;SDS011;30133;47.866;-4.222;2022-08-19T05:29:31;2.38;;;1.77;;
44426;SDS011;30133;47.866;-4.222;2022-08-19T05:32:01;2.25;;;1.42;;
44426;SDS011;30133;47.866;-4.222;2022-08-19T05:34:30;3.08;;;2.33;;
44426;SDS011;30133;47.866;-4.222;2022-08-19T05:36:59;3.03;;;1.75;;
44426;SDS011;30133;47.866;-4.222;2022-08-19T05:39:28;2.97;;;1.67;;
44426;SDS011;30133;47.866;-4.222;2022-08-19T05:41:58;2.78;;;1.63;;
44426;SDS011;30133;47.866;-4.222;2022-08-19T05:44:31;3.85;;;2.03;;
44426;SDS011;30133;47.866;-4.222;2022-08-19T05:47:00;2.70;;;1.67;;
44426;SDS011;30133;47.866;-4.222;2022-08-19T05:49:29;2.17;;;1.25;;
44426;SDS011;30133;47.866;-4.222;2022-08-19T05:52:01;2.53;;;1.67;;
44426;SDS011;30133;47.866;-4.222;2022-08-19T05:54:32;3.65;;;1.85;;
44426;SDS011;30133;47.866;-4.222;2022-08-19T05:57:01;5.18;;;2.00;;
44426;SDS011;30133;47.866;-4.222;2022-08-19T05:59:28;2.17;;;1.60;;
44426;SDS011;30133;47.866;-4.222;2022-08-19T06:01:54;3.08;;;1.95;;
44426;SDS011;30133;47.866;-4.222;2022-08-19T06:04:22;1.80;;;1.50;;
44426;SDS011;30133;47.866;-4.222;2022-08-19T06:06:49;2.22;;;1.75;;
44426;SDS011;30133;47.866;-4.222;2022-08-19T06:09:19;4.32;;;1.77;;
44426;SDS011;30133;47.866;-4.222;2022-08-19T06:11:56;3.30;;;1.70;;
44426;SDS011;30133;47.866;-4.222;2022-08-19T06:14:26;2.50;;;1.85;;
44426;SDS011;30133;47.866;-4.222;2022-08-19T06:16:57;3.25;;;1.88;;
44426;SDS011;30133;47.866;-4.222;2022-08-19T06:19:29;2.30;;;1.55;;
44426;SDS011;30133;47.866;-4.222;2022-08-19T06:21:57;2.47;;;2.10;;
44426;SDS011;30133;47.866;-4.222;2022-08-19T06:24:27;3.47;;;1.98;;
44426;SDS011;30133;47.866;-4.222;2022-08-19T06:26:56;6.53;;;2.25;;
44426;SDS011;30133;47.866;-4.222;2022-08-19T06:29:26;3.30;;;2.17;;
44426;SDS011;30133;47.866;-4.222;2022-08-19T06:31:58;2.70;;;1.58;;
44426;SDS011;30133;47.866;-4.222;2022-08-19T06:34:28;2.63;;;1.75;;
44426;SDS011;30133;47.866;-4.222;2022-08-19T06:37:00;3.15;;;1.65;;
44426;SDS011;30133;47.866;-4.222;2022-08-19T06:39:29;1.95;;;1.50;;
44426;SDS011;30133;47.866;-4.222;2022-08-19T06:42:00;2.83;;;1.90;;
44426;SDS011;30133;47.866;-4.222;2022-08-19T06:44:33;2.50;;;1.40;;
44426;SDS011;30133;47.866;-4.222;2022-08-19T06:47:06;2.50;;;1.80;;
44426;SDS011;30133;47.866;-4.222;2022-08-19T06:49:35;2.00;;;1.50;;
44426;SDS011;30133;47.866;-4.222;2022-08-19T06:52:02;1.85;;;1.50;;
44426;SDS011;30133;47.866;-4.222;2022-08-19T06:54:31;3.78;;;1.58;;
44426;SDS011;30133;47.866;-4.222;2022-08-19T06:56:59;2.67;;;2.03;;
44426;SDS011;30133;47.866;-4.222;2022-08-19T06:59:30;5.00;;;1.70;;
44426;SDS011;30133;47.866;-4.222;2022-08-19T07:02:05;2.85;;;1.90;;
44426;SDS011;30133;47.866;-4.222;2022-08-19T07:04:33;2.90;;;1.58;;
44426;SDS011;30133;47.866;-4.222;2022-08-19T07:07:11;2.95;;;1.80;;
44426;SDS011;30133;47.866;-4.222;2022-08-19T07:09:42;2.58;;;1.95;;
44426;SDS011;30133;47.866;-4.222;2022-08-19T07:12:11;3.80;;;1.73;;
44426;SDS011;30133;47.866;-4.222;2022-08-19T07:14:44;3.20;;;1.73;;
44426;SDS011;30133;47.866;-4.222;2022-08-19T07:17:11;2.90;;;2.00;;
44426;SDS011;30133;47.866;-4.222;2022-08-19T07:19:38;3.17;;;1.88;;
44426;SDS011;30133;47.866;-4.222;2022-08-19T07:22:05;2.42;;;1.67;;
44426;SDS011;30133;47.866;-4.222;2022-08-19T07:24:33;3.33;;;1.88;;
44426;SDS011;30133;47.866;-4.222;2022-08-19T07:27:04;2.05;;;1.58;;
44426;SDS011;30133;47.866;-4.222;2022-08-19T07:29:37;1.98;;;1.45;;
44426;SDS011;30133;47.866;-4.222;2022-08-19T07:32:04;1.50;;;1.40;;
44426;SDS011;30133;47.866;-4.222;2022-08-19T07:34:37;3.63;;;1.50;;
44426;SDS011;30133;47.866;-4.222;2022-08-19T07:37:04;2.90;;;1.42;;
44426;SDS011;30133;47.866;-4.222;2022-08-19T07:39:32;2.35;;;1.38;;
44426;SDS011;30133;47.866;-4.222;2022-08-19T07:42:03;3.90;;;1.60;;
44426;SDS011;30133;47.866;-4.222;2022-08-19T07:44:33;2.13;;;1.30;;
44426;SDS011;30133;47.866;-4.222;2022-08-19T07:47:05;3.05;;;1.70;;
44426;SDS011;30133;47.866;-4.222;2022-08-19T07:49:31;2.83;;;1.45;;
44426;SDS011;30133;47.866;-4.222;2022-08-19T07:52:04;3.22;;;1.85;;
44426;SDS011;30133;47.866;-4.222;2022-08-19T07:54:34;5.00;;;2.05;;
44426;SDS011;30133;47.866;-4.222;2022-08-19T07:57:06;3.30;;;1.50;;
44426;SDS011;30133;47.866;-4.222;2022-08-19T07:59:33;2.88;;;1.52;;
44426;SDS011;30133;47.866;-4.222;2022-08-19T08:02:04;3.40;;;1.98;;
44426;SDS011;30133;47.866;-4.222;2022-08-19T08:04:31;3.15;;;1.70;;
44426;SDS011;30133;47.866;-4.222;2022-08-19T08:07:18;7.53;;;1.33;;
44426;SDS011;30133;47.866;-4.222;2022-08-19T08:10:05;4.72;;;1.30;;
44426;SDS011;30133;47.866;-4.222;2022-08-19T08:12:34;2.38;;;1.23;;
44426;SDS011;30133;47.866;-4.222;2022-08-19T08:15:08;5.55;;;1.70;;
44426;SDS011;30133;47.866;-4.222;2022-08-19T08:17:44;5.07;;;1.63;;
44426;SDS011;30133;47.866;-4.222;2022-08-19T08:20:11;11.95;;;1.90;;
44426;SDS011;30133;47.866;-4.222;2022-08-19T08:22:42;7.45;;;1.35;;
44426;SDS011;30133;47.866;-4.222;2022-08-19T08:25:29;4.30;;;1.42;;
44426;SDS011;30133;47.866;-4.222;2022-08-19T08:27:58;4.65;;;1.40;;
44426;SDS011;30133;47.866;-4.222;2022-08-19T08:30:29;5.80;;;1.20;;
44426;SDS011;30133;47.866;-4.222;2022-08-19T08:33:02;5.20;;;1.63;;
44426;SDS011;30133;47.866;-4.222;2022-08-19T08:35:32;3.85;;;1.50;;
44426;SDS011;30133;47.866;-4.222;2022-08-19T08:37:59;5.40;;;1.33;;
44426;SDS011;30133;47.866;-4.222;2022-08-19T08:40:37;5.57;;;1.67;;
44426;SDS011;30133;47.866;-4.222;2022-08-19T08:43:18;5.80;;;1.48;;
44426;SDS011;30133;47.866;-4.222;2022-08-19T08:46:10;4.90;;;1.75;;
44426;SDS011;30133;47.866;-4.222;2022-08-19T08:49:20;4.47;;;1.52;;
44426;SDS011;30133;47.866;-4.222;2022-08-19T08:52:05;4.43;;;1.33;;
44426;SDS011;30133;47.866;-4.222;2022-08-19T08:54:43;10.85;;;1.80;;
44426;SDS011;30133;47.866;-4.222;2022-08-19T08:57:14;8.13;;;2.13;;
44426;SDS011;30133;47.866;-4.222;2022-08-19T09:00:12;4.95;;;2.33;;
44426;SDS011;30133;47.866;-4.222;2022-08-19T09:02:44;10.90;;;2.08;;
44426;SDS011;30133;47.866;-4.222;2022-08-19T09:05:11;5.18;;;1.92;;
44426;SDS011;30133;47.866;-4.222;2022-08-19T09:07:59;10.45;;;2.03;;
44426;SDS011;30133;47.866;-4.222;2022-08-19T09:15:44;4.75;;;1.08;;
44426;SDS011;30133;47.866;-4.222;2022-08-19T09:18:19;8.52;;;1.63;;
44426;SDS011;30133;47.866;-4.222;2022-08-19T09:20:45;6.85;;;1.63;;
44426;SDS011;30133;47.866;-4.222;2022-08-19T09:23:13;5.78;;;1.48;;
44426;SDS011;30133;47.866;-4.222;2022-08-19T09:25:39;4.45;;;2.10;;
44426;SDS011;30133;47.866;-4.222;2022-08-19T09:28:06;9.15;;;1.13;;
44426;SDS011;30133;47.866;-4.222;2022-08-19T09:30:34;7.82;;;1.67;;
44426;SDS011;30133;47.866;-4.222;2022-08-19T09:33:07;7.03;;;1.17;;
44426;SDS011;30133;47.866;-4.222;2022-08-19T09:35:35;6.78;;;1.70;;
44426;SDS011;30133;47.866;-4.222;2022-08-19T09:38:02;5.65;;;1.80;;
44426;SDS011;30133;47.866;-4.222;2022-08-19T09:40:29;5.05;;;1.20;;
44426;SDS011;30133;47.866;-4.222;2022-08-19T09:42:56;3.67;;;1.40;;
44426;SDS011;30133;47.866;-4.222;2022-08-19T09:45:27;7.32;;;1.52;;
44426;SDS011;30133;47.866;-4.222;2022-08-19T09:47:55;4.03;;;1.48;;
44426;SDS011;30133;47.866;-4.222;2022-08-19T09:50:23;3.33;;;1.65;;
44426;SDS011;30133;47.866;-4.222;2022-08-19T09:52:51;8.10;;;1.98;;
44426;SDS011;30133;47.866;-4.222;2022-08-19T09:55:19;6.43;;;1.60;;
44426;SDS011;30133;47.866;-4.222;2022-08-19T09:57:45;1.98;;;1.17;;
44426;SDS011;30133;47.866;-4.222;2022-08-19T10:00:12;3.97;;;1.48;;
44426;SDS011;30133;47.866;-4.222;2022-08-19T10:02:39;5.10;;;1.45;;
44426;SDS011;30133;47.866;-4.222;2022-08-19T10:05:05;8.02;;;1.63;;
44426;SDS011;30133;47.866;-4.222;2022-08-19T10:07:50;3.72;;;1.38;;
44426;SDS011;30133;47.866;-4.222;2022-08-19T10:10:17;5.65;;;1.33;;
44426;SDS011;30133;47.866;-4.222;2022-08-19T10:12:44;8.80;;;2.00;;
44426;SDS011;30133;47.866;-4.222;2022-08-19T10:15:12;7.97;;;1.95;;
44426;SDS011;30133;47.866;-4.222;2022-08-19T10:17:39;6.35;;;1.65;;
44426;SDS011;30133;47.866;-4.222;2022-08-19T10:20:06;7.03;;;1.95;;
44426;SDS011;30133;47.866;-4.222;2022-08-19T10:22:35;7.47;;;1.70;;
44426;SDS011;30133;47.866;-4.222;2022-08-19T10:25:03;4.18;;;1.70;;
44426;SDS011;30133;47.866;-4.222;2022-08-19T10:27:33;2.70;;;1.38;;
44426;SDS011;30133;47.866;-4.222;2022-08-19T10:30:00;7.10;;;1.40;;
44426;SDS011;30133;47.866;-4.222;2022-08-19T10:32:26;5.00;;;1.67;;
44426;SDS011;30133;47.866;-4.222;2022-08-19T10:34:54;3.13;;;1.48;;
44426;SDS011;30133;47.866;-4.222;2022-08-19T10:37:21;3.35;;;1.35;;
44426;SDS011;30133;47.866;-4.222;2022-08-19T10:39:47;3.75;;;1.23;;
44426;SDS011;30133;47.866;-4.222;2022-08-19T10:42:15;8.13;;;2.25;;
44426;SDS011;30133;47.866;-4.222;2022-08-19T10:44:44;6.50;;;1.63;;
44426;SDS011;30133;47.866;-4.222;2022-08-19T10:47:11;3.65;;;1.42;;
44426;SDS011;30133;47.866;-4.222;2022-08-19T10:49:37;4.60;;;1.23;;
44426;SDS011;30133;47.866;-4.222;2022-08-19T10:52:23;3.22;;;0.90;;
44426;SDS011;30133;47.866;-4.222;2022-08-19T10:55:08;4.45;;;1.55;;
44426;SDS011;30133;47.866;-4.222;2022-08-19T10:57:52;4.50;;;1.50;;
44426;SDS011;30133;47.866;-4.222;2022-08-19T11:00:20;4.93;;;1.30;;
44426;SDS011;30133;47.866;-4.222;2022-08-19T11:02:48;4.43;;;1.10;;
44426;SDS011;30133;47.866;-4.222;2022-08-19T11:05:16;4.05;;;1.27;;
44426;SDS011;30133;47.866;-4.222;2022-08-19T11:07:44;3.83;;;1.08;;
44426;SDS011;30133;47.866;-4.222;2022-08-19T11:10:12;2.70;;;1.08;;
44426;SDS011;30133;47.866;-4.222;2022-08-19T11:12:40;11.73;;;1.23;;
44426;SDS011;30133;47.866;-4.222;2022-08-19T11:15:08;2.45;;;1.23;;
44426;SDS011;30133;47.866;-4.222;2022-08-19T11:17:37;2.92;;;1.17;;
44426;SDS011;30133;47.866;-4.222;2022-08-19T11:20:09;7.00;;;1.25;;
44426;SDS011;30133;47.866;-4.222;2022-08-19T11:22:37;3.20;;;1.50;;
44426;SDS011;30133;47.866;-4.222;2022-08-19T11:25:06;2.33;;;1.10;;
44426;SDS011;30133;47.866;-4.222;2022-08-19T11:27:41;2.58;;;0.98;;
44426;SDS011;30133;47.866;-4.222;2022-08-19T11:30:10;7.80;;;1.15;;
44426;SDS011;30133;47.866;-4.222;2022-08-19T11:32:41;5.45;;;1.40;;
44426;SDS011;30133;47.866;-4.222;2022-08-19T11:35:09;3.55;;;0.95;;
44426;SDS011;30133;47.866;-4.222;2022-08-19T11:37:36;1.67;;;0.77;;
44426;SDS011;30133;47.866;-4.222;2022-08-19T11:40:06;3.47;;;1.40;;
44426;SDS011;30133;47.866;-4.222;2022-08-19T11:42:33;2.55;;;1.02;;
44426;SDS011;30133;47.866;-4.222;2022-08-19T11:45:18;6.53;;;1.00;;
44426;SDS011;30133;47.866;-4.222;2022-08-19T11:47:45;3.60;;;0.93;;
44426;SDS011;30133;47.866;-4.222;2022-08-19T11:50:12;1.77;;;0.85;;
44426;SDS011;30133;47.866;-4.222;2022-08-19T11:52:40;1.27;;;0.77;;
44426;SDS011;30133;47.866;-4.222;2022-08-19T11:55:08;4.95;;;1.00;;
44426;SDS011;30133;47.866;-4.222;2022-08-19T11:57:34;3.15;;;0.98;;
44426;SDS011;30133;47.866;-4.222;2022-08-19T12:00:01;2.47;;;1.20;;
44426;SDS011;30133;47.866;-4.222;2022-08-19T12:02:29;3.42;;;1.00;;
44426;SDS011;30133;47.866;-4.222;2022-08-19T12:04:56;2.50;;;0.90;;
44426;SDS011;30133;47.866;-4.222;2022-08-19T12:07:23;2.63;;;0.85;;
44426;SDS011;30133;47.866;-4.222;2022-08-19T12:09:49;1.55;;;0.98;;
44426;SDS011;30133;47.866;-4.222;2022-08-19T12:12:16;2.03;;;0.80;;
44426;SDS011;30133;47.866;-4.222;2022-08-19T12:14:42;2.58;;;0.70;;
44426;SDS011;30133;47.866;-4.222;2022-08-19T12:17:09;5.13;;;1.38;;
44426;SDS011;30133;47.866;-4.222;2022-08-19T12:19:36;1.98;;;0.85;;
44426;SDS011;30133;47.866;-4.222;2022-08-19T12:22:05;1.48;;;0.73;;
44426;SDS011;30133;47.866;-4.222;2022-08-19T12:24:32;2.28;;;1.10;;
44426;SDS011;30133;47.866;-4.222;2022-08-19T12:27:00;1.23;;;1.10;;
44426;SDS011;30133;47.866;-4.222;2022-08-19T12:29:26;1.63;;;0.70;;
44426;SDS011;30133;47.866;-4.222;2022-08-19T12:31:53;5.45;;;1.15;;
44426;SDS011;30133;47.866;-4.222;2022-08-19T12:34:31;2.38;;;0.90;;
44426;SDS011;30133;47.866;-4.222;2022-08-19T12:36:58;2.15;;;0.80;;
44426;SDS011;30133;47.866;-4.222;2022-08-19T12:39:28;1.83;;;1.10;;
44426;SDS011;30133;47.866;-4.222;2022-08-19T12:41:56;1.42;;;0.77;;
44426;SDS011;30133;47.866;-4.222;2022-08-19T12:44:23;3.35;;;1.10;;
44426;SDS011;30133;47.866;-4.222;2022-08-19T12:46:49;1.17;;;0.77;;
44426;SDS011;30133;47.866;-4.222;2022-08-19T12:49:15;4.97;;;0.75;;
44426;SDS011;30133;47.866;-4.222;2022-08-19T12:51:41;1.40;;;0.90;;
44426;SDS011;30133;47.866;-4.222;2022-08-19T12:54:08;2.25;;;0.90;;
44426;SDS011;30133;47.866;-4.222;2022-08-19T12:56:34;1.17;;;0.85;;
44426;SDS011;30133;47.866;-4.222;2022-08-19T12:59:02;1.40;;;0.90;;
44426;SDS011;30133;47.866;-4.222;2022-08-19T13:01:29;2.97;;;0.82;;
44426;SDS011;30133;47.866;-4.222;2022-08-19T13:03:57;1.23;;;0.82;;
44426;SDS011;30133;47.866;-4.222;2022-08-19T13:06:25;1.35;;;0.80;;
44426;SDS011;30133;47.866;-4.222;2022-08-19T13:08:52;4.13;;;1.08;;
44426;SDS011;30133;47.866;-4.222;2022-08-19T13:11:20;6.80;;;2.22;;
44426;SDS011;30133;47.866;-4.222;2022-08-19T13:13:49;1.20;;;0.60;;
44426;SDS011;30133;47.866;-4.222;2022-08-19T13:16:18;1.23;;;0.80;;
44426;SDS011;30133;47.866;-4.222;2022-08-19T13:18:46;4.35;;;1.05;;
44426;SDS011;30133;47.866;-4.222;2022-08-19T13:21:13;1.65;;;0.80;;
44426;SDS011;30133;47.866;-4.222;2022-08-19T13:23:40;2.22;;;0.88;;
44426;SDS011;30133;47.866;-4.222;2022-08-19T13:26:07;2.20;;;0.55;;
44426;SDS011;30133;47.866;-4.222;2022-08-19T13:28:34;2.83;;;1.10;;
44426;SDS011;30133;47.866;-4.222;2022-08-19T13:31:20;2.17;;;0.90;;
44426;SDS011;30133;47.866;-4.222;2022-08-19T13:34:07;7.10;;;0.90;;
44426;SDS011;30133;47.866;-4.222;2022-08-19T13:36:34;2.25;;;0.80;;
44426;SDS011;30133;47.866;-4.222;2022-08-19T13:39:01;7.95;;;1.20;;
44426;SDS011;30133;47.866;-4.222;2022-08-19T13:41:29;1.58;;;0.70;;
44426;SDS011;30133;47.866;-4.222;2022-08-19T13:43:56;2.00;;;0.70;;
44426;SDS011;30133;47.866;-4.222;2022-08-19T13:46:23;13.57;;;1.33;;
44426;SDS011;30133;47.866;-4.222;2022-08-19T13:48:49;3.55;;;1.02;;
44426;SDS011;30133;47.866;-4.222;2022-08-19T13:51:16;6.57;;;1.17;;
44426;SDS011;30133;47.866;-4.222;2022-08-19T13:53:44;2.85;;;1.30;;
44426;SDS011;30133;47.866;-4.222;2022-08-19T13:56:12;6.78;;;1.15;;
44426;SDS011;30133;47.866;-4.222;2022-08-19T13:58:42;2.95;;;1.20;;
44426;SDS011;30133;47.866;-4.222;2022-08-19T14:01:08;4.05;;;1.25;;
44426;SDS011;30133;47.866;-4.222;2022-08-19T14:03:35;6.18;;;0.88;;
44426;SDS011;30133;47.866;-4.222;2022-08-19T14:06:02;3.33;;;0.93;;
44426;SDS011;30133;47.866;-4.222;2022-08-19T14:08:28;3.28;;;1.10;;
44426;SDS011;30133;47.866;-4.222;2022-08-19T14:10:55;11.20;;;1.63;;
44426;SDS011;30133;47.866;-4.222;2022-08-19T14:13:22;8.93;;;1.25;;
44426;SDS011;30133;47.866;-4.222;2022-08-19T14:15:49;13.73;;;1.40;;
44426;SDS011;30133;47.866;-4.222;2022-08-19T14:18:18;5.88;;;1.42;;
44426;SDS011;30133;47.866;-4.222;2022-08-19T14:20:44;8.13;;;0.80;;
44426;SDS011;30133;47.866;-4.222;2022-08-19T14:23:10;8.88;;;1.60;;
44426;SDS011;30133;47.866;-4.222;2022-08-19T14:25:39;6.03;;;1.20;;
44426;SDS011;30133;47.866;-4.222;2022-08-19T14:28:05;5.85;;;1.27;;
44426;SDS011;30133;47.866;-4.222;2022-08-19T14:30:33;4.50;;;1.05;;
44426;SDS011;30133;47.866;-4.222;2022-08-19T14:33:03;5.82;;;1.40;;
44426;SDS011;30133;47.866;-4.222;2022-08-19T14:35:32;5.88;;;0.90;;
44426;SDS011;30133;47.866;-4.222;2022-08-19T14:38:00;6.93;;;1.55;;
44426;SDS011;30133;47.866;-4.222;2022-08-19T14:40:31;11.85;;;1.42;;
44426;SDS011;30133;47.866;-4.222;2022-08-19T14:43:01;4.85;;;1.45;;
44426;SDS011;30133;47.866;-4.222;2022-08-19T14:45:30;23.70;;;1.73;;
44426;SDS011;30133;47.866;-4.222;2022-08-19T14:48:01;12.48;;;1.38;;
44426;SDS011;30133;47.866;-4.222;2022-08-19T14:50:27;1.90;;;1.00;;
44426;SDS011;30133;47.866;-4.222;2022-08-19T14:53:04;5.70;;;1.35;;
44426;SDS011;30133;47.866;-4.222;2022-08-19T14:55:33;3.08;;;0.98;;
44426;SDS011;30133;47.866;-4.222;2022-08-19T14:58:00;6.70;;;1.00;;
44426;SDS011;30133;47.866;-4.222;2022-08-19T15:00:26;8.50;;;1.10;;
44426;SDS011;30133;47.866;-4.222;2022-08-19T15:02:53;4.15;;;1.33;;